Time;durP1;ratioP1;P1;durP2;ratioP2;P2;SDS_P1;SDS_P2;PMS_P1;PMS_P2;Temp;Humidity;BMP_temperature;BMP_pressure;BME280_temperature;BME280_humidity;BME280_pressure;Samples;Min_cycle;Max_cycle;Signal;HPM_P1;HPM_P2
2023/05/27 00:00:56;;;;;;;6.57;3.30;;;8.90;99.90;;;;;;5010747;28;20087;-79
2023/05/27 00:03:21;;;;;;;8.50;3.05;;;9.00;99.90;;;;;;5009114;28;20501;-78
2023/05/27 00:05:47;;;;;;;7.63;2.85;;;9.00;99.90;;;;;;5013313;28;20064;-78
2023/05/27 00:08:13;;;;;;;8.75;2.83;;;9.00;99.90;;;;;;5028725;28;20034;-78
2023/05/27 00:10:38;;;;;;;9.52;3.45;;;9.00;99.90;;;;;;5011118;28;20062;-78
2023/05/27 00:13:04;;;;;;;10.00;3.55;;;9.00;99.90;;;;;;5010161;28;20052;-78
2023/05/27 00:15:30;;;;;;;7.57;2.97;;;9.00;99.90;;;;;;5007846;28;20073;-78
2023/05/27 00:17:57;;;;;;;7.80;3.50;;;8.80;99.90;;;;;;5009863;28;20088;-78
2023/05/27 00:20:23;;;;;;;9.00;3.67;;;8.80;99.90;;;;;;5009534;28;20038;-78
2023/05/27 00:22:50;;;;;;;12.52;3.42;;;8.80;99.90;;;;;;5022440;28;20148;-79
2023/05/27 00:25:20;;;;;;;9.20;3.72;;;8.80;99.90;;;;;;5012476;28;20037;-79
2023/05/27 00:27:46;;;;;;;9.85;3.78;;;8.70;99.90;;;;;;5008773;28;20041;-79
2023/05/27 00:30:11;;;;;;;9.10;3.45;;;8.80;99.90;;;;;;5027389;28;20116;-78
2023/05/27 00:32:37;;;;;;;11.52;3.90;;;8.80;99.90;;;;;;5009666;28;20390;-79
2023/05/27 00:35:03;;;;;;;8.55;3.50;;;8.80;99.90;;;;;;5004510;28;20501;-79
2023/05/27 00:37:28;;;;;;;7.38;3.53;;;8.80;99.90;;;;;;5013240;28;20099;-79
2023/05/27 00:39:54;;;;;;;7.43;3.35;;;8.70;99.90;;;;;;5028483;28;20663;-79
2023/05/27 00:42:20;;;;;;;8.55;3.28;;;8.60;99.90;;;;;;5005136;28;20096;-79
2023/05/27 00:44:45;;;;;;;8.75;3.50;;;8.40;99.90;;;;;;5021682;28;20114;-78
2023/05/27 00:47:11;;;;;;;11.10;3.67;;;8.30;99.90;;;;;;5007158;28;20041;-79
2023/05/27 00:49:37;;;;;;;9.48;3.47;;;8.30;99.90;;;;;;5027966;28;20053;-79
2023/05/27 00:52:04;;;;;;;8.93;3.22;;;8.30;99.90;;;;;;5011222;28;20045;-79
2023/05/27 00:54:31;;;;;;;11.65;3.50;;;8.30;99.90;;;;;;5009775;28;20072;-78
2023/05/27 00:56:57;;;;;;;8.70;3.22;;;8.30;99.90;;;;;;5029182;28;20519;-78
2023/05/27 00:59:23;;;;;;;7.07;2.80;;;8.40;99.90;;;;;;5030445;28;20120;-79
2023/05/27 01:01:49;;;;;;;8.27;3.22;;;8.30;99.90;;;;;;4988424;28;20038;-79
2023/05/27 01:04:17;;;;;;;10.60;2.95;;;8.20;99.90;;;;;;5026171;28;20469;-78
2023/05/27 01:06:48;;;;;;;9.77;3.80;;;8.10;99.90;;;;;;5014246;28;20115;-79
2023/05/27 01:09:19;;;;;;;9.48;3.17;;;8.00;99.90;;;;;;5033619;28;20048;-79
2023/05/27 01:11:56;;;;;;;7.72;3.03;;;7.90;99.90;;;;;;5015347;28;20053;-78
2023/05/27 01:14:24;;;;;;;8.40;3.53;;;7.70;99.90;;;;;;5011722;28;20041;-79
2023/05/27 01:16:55;;;;;;;9.00;3.35;;;7.60;99.90;;;;;;5011721;28;20045;-78
2023/05/27 01:19:44;;;;;;;5.85;3.38;;;7.50;99.90;;;;;;5010215;28;20045;-79
2023/05/27 01:22:13;;;;;;;7.95;2.88;;;7.30;99.90;;;;;;5010207;28;20029;-79
2023/05/27 01:24:41;;;;;;;9.45;2.90;;;7.30;99.90;;;;;;5023360;28;20033;-78
2023/05/27 01:27:08;;;;;;;6.57;3.20;;;7.20;99.90;;;;;;5009516;28;20041;-77
2023/05/27 01:29:35;;;;;;;6.85;3.17;;;7.30;99.90;;;;;;5033397;28;20045;-78
2023/05/27 01:32:14;;;;;;;6.25;2.90;;;7.40;99.90;;;;;;5010357;28;20540;-78
2023/05/27 01:35:03;;;;;;;7.97;2.90;;;7.50;99.90;;;;;;5030123;28;20045;-78
2023/05/27 01:37:35;;;;;;;11.00;3.20;;;7.50;99.90;;;;;;5012677;28;20038;-78
2023/05/27 01:40:06;;;;;;;8.32;2.70;;;7.50;99.90;;;;;;5021487;28;20112;-79
2023/05/27 01:42:34;;;;;;;7.53;2.75;;;7.50;99.90;;;;;;5028960;28;20042;-78
2023/05/27 01:45:00;;;;;;;8.90;2.70;;;7.50;99.90;;;;;;5002357;28;20042;-78
2023/05/27 01:47:27;;;;;;;5.78;2.70;;;7.50;99.90;;;;;;5012182;28;20041;-79
2023/05/27 01:49:52;;;;;;;8.55;2.92;;;7.50;99.90;;;;;;5032113;28;20049;-80
2023/05/27 01:52:18;;;;;;;8.10;2.90;;;7.50;99.90;;;;;;5014257;28;20041;-79
2023/05/27 01:54:43;;;;;;;7.10;3.08;;;7.40;99.90;;;;;;5011317;28;20405;-79
2023/05/27 01:57:09;;;;;;;5.30;2.67;;;7.50;99.90;;;;;;5014653;28;20071;-79
2023/05/27 01:59:35;;;;;;;5.47;2.72;;;7.60;99.90;;;;;;5011904;28;20068;-78
2023/05/27 02:02:00;;;;;;;6.40;2.83;;;7.70;99.90;;;;;;5008828;28;20037;-78
2023/05/27 02:04:26;;;;;;;5.65;2.42;;;7.70;99.90;;;;;;4996330;28;20511;-78
2023/05/27 02:06:51;;;;;;;5.55;2.67;;;7.70;99.90;;;;;;5021559;28;20033;-78
2023/05/27 02:09:17;;;;;;;8.07;2.60;;;7.70;99.90;;;;;;5011534;28;20045;-79
2023/05/27 02:11:43;;;;;;;7.22;2.60;;;7.60;99.90;;;;;;4995996;28;20041;-78
2023/05/27 02:14:08;;;;;;;6.97;2.50;;;7.50;99.90;;;;;;5012388;28;20387;-78
2023/05/27 02:16:34;;;;;;;7.85;2.78;;;7.50;99.90;;;;;;5010769;28;20069;-79
2023/05/27 02:19:04;;;;;;;7.13;2.75;;;7.60;99.90;;;;;;5010398;28;20038;-79
2023/05/27 02:21:30;;;;;;;5.82;2.53;;;7.60;99.90;;;;;;5011717;28;20033;-79
2023/05/27 02:23:56;;;;;;;7.85;2.92;;;7.60;99.90;;;;;;5012949;28;20060;-79
2023/05/27 02:26:21;;;;;;;9.18;3.38;;;7.50;99.90;;;;;;5030306;28;20070;-79
2023/05/27 02:28:47;;;;;;;5.75;2.83;;;7.40;99.90;;;;;;5011705;28;20050;-79
2023/05/27 02:31:13;;;;;;;6.72;3.05;;;7.30;99.90;;;;;;5021919;28;20561;-79
2023/05/27 02:33:38;;;;;;;6.80;2.83;;;7.20;99.90;;;;;;5028435;28;20041;-79
2023/05/27 02:36:05;;;;;;;6.28;2.70;;;7.20;99.90;;;;;;5013900;28;20041;-79
2023/05/27 02:38:31;;;;;;;7.00;2.47;;;7.30;99.90;;;;;;5005103;28;20567;-79
2023/05/27 02:40:56;;;;;;;9.48;2.95;;;7.30;99.90;;;;;;5022639;28;20132;-79
2023/05/27 02:43:22;;;;;;;8.15;3.17;;;7.40;99.90;;;;;;5013442;28;20029;-78
2023/05/27 02:45:47;;;;;;;8.85;2.80;;;7.40;99.90;;;;;;5031272;28;20037;-78
2023/05/27 02:48:13;;;;;;;6.93;2.97;;;7.50;99.90;;;;;;5007363;28;20045;-78
2023/05/27 02:50:39;;;;;;;6.45;3.00;;;7.60;99.90;;;;;;5010581;28;20048;-79
2023/05/27 02:53:04;;;;;;;7.55;2.72;;;7.70;99.90;;;;;;5008863;28;20112;-78
2023/05/27 02:55:30;;;;;;;8.98;3.25;;;7.70;99.90;;;;;;5026525;28;20040;-78
2023/05/27 02:57:55;;;;;;;10.57;3.58;;;7.90;99.90;;;;;;5006804;28;20091;-79
2023/05/27 03:00:21;;;;;;;12.52;3.38;;;7.90;99.90;;;;;;5014247;28;20045;-78
2023/05/27 03:02:47;;;;;;;7.95;2.92;;;8.00;99.90;;;;;;5009862;28;20060;-80
2023/05/27 03:05:13;;;;;;;10.98;3.47;;;8.00;99.90;;;;;;5014796;28;20060;-80
2023/05/27 03:07:41;;;;;;;8.57;3.03;;;8.00;99.90;;;;;;5011851;28;20041;-79
2023/05/27 03:10:07;;;;;;;10.88;3.35;;;8.10;99.90;;;;;;5007193;28;20408;-79
2023/05/27 03:12:33;;;;;;;9.05;3.35;;;8.20;99.90;;;;;;5011054;28;20091;-79
2023/05/27 03:14:58;;;;;;;9.98;3.13;;;8.20;99.90;;;;;;5028676;28;20409;-78
2023/05/27 03:17:24;;;;;;;12.40;3.08;;;8.30;99.90;;;;;;5010713;28;20041;-79
2023/05/27 03:19:50;;;;;;;11.02;3.40;;;8.30;99.90;;;;;;5028443;28;20042;-78
2023/05/27 03:22:16;;;;;;;10.43;2.97;;;8.40;99.90;;;;;;5011719;28;20065;-79
2023/05/27 03:24:42;;;;;;;9.85;3.17;;;8.50;99.90;;;;;;5013107;28;20061;-79
2023/05/27 03:27:07;;;;;;;12.55;3.05;;;8.50;99.90;;;;;;5011613;28;20412;-79
2023/05/27 03:29:33;;;;;;;13.80;3.63;;;8.50;99.90;;;;;;5004087;28;20096;-79
2023/05/27 03:31:58;;;;;;;10.27;3.25;;;8.50;99.90;;;;;;5003496;28;20040;-79
2023/05/27 03:34:24;;;;;;;11.65;3.40;;;8.40;99.90;;;;;;5004913;28;20068;-79
2023/05/27 03:36:50;;;;;;;10.43;3.60;;;8.40;99.90;;;;;;5011903;28;20053;-78
2023/05/27 03:39:16;;;;;;;9.73;3.47;;;8.40;99.90;;;;;;5007087;28;20042;-79
2023/05/27 03:41:43;;;;;;;12.13;3.05;;;8.40;99.90;;;;;;5027876;28;20405;-79
2023/05/27 03:44:09;;;;;;;9.23;3.35;;;8.40;99.90;;;;;;5006645;28;20041;-78
2023/05/27 03:46:35;;;;;;;7.80;2.80;;;8.40;99.90;;;;;;5001834;28;20049;-79
2023/05/27 03:49:01;;;;;;;13.43;4.38;;;8.40;99.90;;;;;;5013122;28;20113;-79
2023/05/27 03:51:26;;;;;;;12.00;3.55;;;8.50;99.90;;;;;;5011095;28;20181;-79
2023/05/27 03:53:52;;;;;;;7.40;2.85;;;8.50;99.90;;;;;;5000901;28;20119;-79
2023/05/27 03:56:17;;;;;;;9.02;3.70;;;8.60;99.90;;;;;;5003749;28;20508;-79
2023/05/27 03:58:43;;;;;;;7.80;3.25;;;8.60;99.90;;;;;;5002557;28;20621;-79
2023/05/27 04:01:09;;;;;;;10.77;3.83;;;8.50;99.90;;;;;;5010925;28;20052;-79
2023/05/27 04:03:35;;;;;;;13.30;3.72;;;8.40;99.90;;;;;;5024229;28;20407;-79
2023/05/27 04:06:00;;;;;;;11.75;3.30;;;8.50;99.90;;;;;;5020721;28;20038;-79
2023/05/27 04:08:27;;;;;;;10.48;3.80;;;8.50;99.90;;;;;;5012067;28;20124;-79
2023/05/27 04:10:54;;;;;;;7.13;2.92;;;8.50;99.90;;;;;;5022642;28;20037;-79
2023/05/27 04:13:20;;;;;;;9.65;3.00;;;8.50;99.90;;;;;;5007087;28;20057;-79
2023/05/27 04:15:46;;;;;;;10.55;3.70;;;8.60;99.90;;;;;;5011900;28;20033;-79
2023/05/27 04:18:11;;;;;;;9.70;3.65;;;8.70;99.90;;;;;;5011311;28;20104;-79
2023/05/27 04:20:40;;;;;;;9.65;3.22;;;8.70;99.90;;;;;;4981038;28;20088;-79
2023/05/27 04:23:06;;;;;;;12.93;3.80;;;8.80;99.90;;;;;;5009671;28;20045;-79
2023/05/27 04:25:32;;;;;;;15.90;3.72;;;8.90;99.90;;;;;;5011169;28;20077;-79
2023/05/27 04:27:58;;;;;;;11.52;3.53;;;9.00;99.90;;;;;;5028930;28;20068;-78
2023/05/27 04:30:23;;;;;;;17.02;3.95;;;9.10;99.90;;;;;;5016477;28;20105;-79
2023/05/27 04:32:49;;;;;;;7.55;3.30;;;9.20;99.90;;;;;;5006383;28;20044;-79
2023/05/27 04:35:14;;;;;;;10.23;3.08;;;9.30;99.90;;;;;;5012503;28;20125;-80
2023/05/27 04:37:44;;;;;;;11.30;3.58;;;9.30;99.90;;;;;;5012843;28;20072;-79
2023/05/27 04:40:10;;;;;;;9.95;3.28;;;9.40;99.90;;;;;;5006180;28;20048;-79
2023/05/27 04:42:36;;;;;;;8.38;3.40;;;9.40;99.90;;;;;;5020947;28;20042;-79
2023/05/27 04:45:06;;;;;;;11.48;4.07;;;9.40;99.90;;;;;;5024587;28;20088;-79
2023/05/27 04:47:32;;;;;;;10.65;3.60;;;9.40;99.90;;;;;;5025892;28;20037;-79
2023/05/27 04:50:01;;;;;;;13.98;3.92;;;9.50;99.90;;;;;;5003295;28;20041;-79
2023/05/27 04:52:27;;;;;;;14.85;3.50;;;9.50;99.90;;;;;;5024267;28;20045;-79
2023/05/27 04:54:54;;;;;;;14.35;3.83;;;9.50;99.90;;;;;;5002510;28;20042;-80
2023/05/27 04:57:23;;;;;;;12.45;3.50;;;9.50;99.90;;;;;;5009870;28;20037;-79
2023/05/27 05:02:38;;;;;;;12.50;3.78;;;9.50;99.90;;;;;;4999454;28;20778;-81
2023/05/27 05:05:06;;;;;;;15.13;4.05;;;9.40;99.90;;;;;;5000221;28;20038;-79
2023/05/27 05:07:33;;;;;;;11.75;3.58;;;9.40;99.90;;;;;;5020050;28;20390;-79
2023/05/27 05:09:59;;;;;;;12.50;3.95;;;9.40;99.90;;;;;;5019002;28;20404;-79
2023/05/27 05:12:25;;;;;;;11.10;3.50;;;9.40;99.90;;;;;;5019556;28;20042;-79
2023/05/27 05:14:51;;;;;;;14.10;3.78;;;9.40;99.90;;;;;;5032400;28;20038;-79
2023/05/27 05:17:17;;;;;;;11.88;3.70;;;9.40;99.90;;;;;;5009990;28;20056;-79
2023/05/27 05:19:43;;;;;;;8.68;3.25;;;9.40;99.90;;;;;;5014712;28;20037;-79
2023/05/27 05:22:10;;;;;;;11.45;3.40;;;9.40;99.90;;;;;;4999811;28;20034;-79
2023/05/27 05:24:36;;;;;;;10.65;3.85;;;9.40;99.90;;;;;;5011574;28;20120;-79
2023/05/27 05:27:01;;;;;;;8.88;3.67;;;9.40;99.90;;;;;;5011348;28;20069;-80
2023/05/27 05:29:27;;;;;;;15.60;3.70;;;9.40;99.90;;;;;;5010219;28;20073;-79
2023/05/27 05:31:52;;;;;;;13.98;4.13;;;9.40;99.90;;;;;;5017099;28;20045;-80
2023/05/27 05:34:18;;;;;;;11.00;3.42;;;9.40;99.90;;;;;;5017025;28;20449;-79
2023/05/27 05:36:44;;;;;;;11.93;3.53;;;9.40;99.90;;;;;;5010223;28;20569;-80
2023/05/27 05:39:09;;;;;;;12.25;3.40;;;9.40;99.90;;;;;;5014433;28;20261;-79
2023/05/27 05:41:35;;;;;;;10.25;3.33;;;9.40;99.90;;;;;;5008026;28;20046;-79
2023/05/27 05:44:00;;;;;;;11.65;3.58;;;9.40;99.90;;;;;;4998240;28;20065;-79
2023/05/27 05:46:26;;;;;;;12.15;3.63;;;9.40;99.90;;;;;;5017996;28;20033;-79
2023/05/27 05:48:53;;;;;;;10.15;3.42;;;9.50;99.90;;;;;;5033259;28;20041;-79
2023/05/27 05:51:18;;;;;;;14.70;3.58;;;9.70;99.90;;;;;;5015183;28;20041;-80
2023/05/27 05:53:44;;;;;;;10.90;3.55;;;9.80;99.90;;;;;;5009756;28;20041;-79
2023/05/27 05:56:10;;;;;;;11.82;3.47;;;10.00;99.90;;;;;;5016438;28;20052;-79
2023/05/27 05:58:35;;;;;;;9.45;3.55;;;10.10;99.90;;;;;;5024562;28;20038;-79
2023/05/27 06:01:01;;;;;;;12.25;3.50;;;10.30;99.90;;;;;;5014621;28;20043;-80
2023/05/27 06:03:27;;;;;;;13.60;3.60;;;10.50;99.90;;;;;;5013307;28;20417;-79
2023/05/27 06:05:52;;;;;;;12.10;3.90;;;10.80;99.90;;;;;;5005406;28;20099;-80
2023/05/27 06:08:18;;;;;;;11.43;3.22;;;11.10;99.90;;;;;;5013534;28;20049;-79
2023/05/27 06:10:43;;;;;;;12.60;3.42;;;11.40;99.90;;;;;;5011528;28;20044;-79
2023/05/27 06:13:10;;;;;;;17.30;3.67;;;11.60;99.90;;;;;;5013969;28;20172;-79
2023/05/27 06:15:37;;;;;;;13.77;3.85;;;11.80;99.90;;;;;;5017633;28;20452;-80
2023/05/27 06:18:03;;;;;;;14.73;4.20;;;11.90;99.90;;;;;;5035112;28;20052;-79
2023/05/27 06:20:29;;;;;;;16.88;4.30;;;12.10;99.90;;;;;;5017535;28;20088;-79
2023/05/27 06:22:54;;;;;;;17.85;3.90;;;12.30;99.90;;;;;;5017326;28;20076;-80
2023/05/27 06:25:20;;;;;;;14.68;3.85;;;12.40;99.90;;;;;;5016262;28;20052;-77
2023/05/27 06:27:46;;;;;;;11.18;3.67;;;12.50;99.90;;;;;;5014802;28;20551;-79
2023/05/27 06:30:12;;;;;;;14.15;3.95;;;12.50;99.90;;;;;;5016280;28;20494;-78
2023/05/27 06:32:38;;;;;;;12.75;3.40;;;12.60;99.90;;;;;;5016059;28;20041;-78
2023/05/27 06:35:04;;;;;;;13.60;3.95;;;12.80;99.90;;;;;;5033435;28;20142;-79
2023/05/27 06:37:29;;;;;;;14.48;3.63;;;12.90;99.90;;;;;;5033220;28;20041;-79
2023/05/27 06:39:55;;;;;;;16.05;3.47;;;13.10;99.90;;;;;;5015665;28;20438;-78
2023/05/27 06:42:22;;;;;;;17.80;4.38;;;13.20;99.90;;;;;;5016124;28;20045;-79
2023/05/27 06:44:48;;;;;;;18.77;4.05;;;13.40;99.90;;;;;;4999701;28;20116;-79
2023/05/27 06:47:13;;;;;;;14.95;4.13;;;13.40;99.90;;;;;;5016130;28;20495;-78
2023/05/27 06:49:39;;;;;;;13.60;4.43;;;13.50;99.90;;;;;;5015416;28;20037;-79
2023/05/27 06:52:05;;;;;;;15.20;4.45;;;13.60;99.90;;;;;;5015874;28;20528;-78
2023/05/27 06:54:30;;;;;;;11.85;4.18;;;13.50;99.90;;;;;;5015916;28;20052;-78
2023/05/27 06:56:56;;;;;;;11.07;3.65;;;13.30;99.90;;;;;;5015038;28;20061;-78
2023/05/27 06:59:22;;;;;;;19.98;4.68;;;13.40;99.90;;;;;;5033336;28;20048;-78
2023/05/27 07:01:47;;;;;;;16.30;4.15;;;13.50;99.90;;;;;;4997843;28;20420;-77
2023/05/27 07:04:13;;;;;;;14.15;3.95;;;13.50;99.90;;;;;;4997680;28;20484;-78
2023/05/27 07:06:38;;;;;;;16.50;4.13;;;13.50;99.90;;;;;;5013648;28;20041;-76
2023/05/27 07:09:04;;;;;;;16.60;4.35;;;13.50;99.90;;;;;;5013656;28;20049;-79
2023/05/27 07:11:30;;;;;;;15.93;4.18;;;13.60;99.90;;;;;;5013810;28;20041;-79
2023/05/27 07:13:55;;;;;;;19.38;3.88;;;13.70;99.90;;;;;;5013798;28;20101;-79
2023/05/27 07:16:21;;;;;;;18.02;3.92;;;13.90;99.90;;;;;;5014646;28;20641;-78
2023/05/27 07:18:46;;;;;;;18.27;4.35;;;14.10;99.90;;;;;;5012142;28;20073;-77
2023/05/27 07:21:12;;;;;;;21.17;4.63;;;14.10;99.90;;;;;;5013032;28;20051;-78
2023/05/27 07:23:37;;;;;;;12.88;4.25;;;14.00;99.90;;;;;;5013197;28;20359;-78
2023/05/27 07:26:03;;;;;;;18.50;4.30;;;14.00;99.90;;;;;;5013888;28;20103;-78
2023/05/27 07:28:29;;;;;;;14.20;4.28;;;14.00;99.90;;;;;;5012831;28;20600;-78
2023/05/27 07:30:54;;;;;;;17.08;4.03;;;14.00;99.90;;;;;;5013444;28;20460;-78
2023/05/27 07:33:20;;;;;;;11.27;3.75;;;14.30;99.90;;;;;;5014568;28;20082;-79
2023/05/27 07:35:46;;;;;;;14.70;3.75;;;14.50;99.90;;;;;;5014492;28;20049;-79
2023/05/27 07:38:12;;;;;;;14.98;3.80;;;14.50;99.90;;;;;;5014717;28;20056;-78
2023/05/27 07:40:37;;;;;;;15.70;4.55;;;14.40;99.90;;;;;;5014920;28;20088;-78
2023/05/27 07:43:03;;;;;;;13.18;4.20;;;14.60;99.90;;;;;;5014802;28;20060;-78
2023/05/27 07:45:29;;;;;;;19.58;4.90;;;14.60;99.90;;;;;;5014993;28;20037;-78
2023/05/27 07:47:54;;;;;;;16.25;4.85;;;14.70;99.90;;;;;;5014346;28;20048;-79
2023/05/27 07:50:20;;;;;;;14.80;4.30;;;14.80;99.90;;;;;;5014470;28;20068;-78
2023/05/27 07:52:46;;;;;;;12.90;4.63;;;15.10;99.90;;;;;;5032379;28;20050;-78
2023/05/27 07:55:12;;;;;;;17.83;4.60;;;15.10;99.90;;;;;;5032217;28;20069;-79
2023/05/27 07:57:37;;;;;;;17.85;4.65;;;15.10;99.90;;;;;;4997665;28;20069;-78
2023/05/27 08:00:06;;;;;;;19.92;4.88;;;15.30;99.90;;;;;;5014607;28;20362;-80
2023/05/27 08:02:31;;;;;;;17.60;4.50;;;15.60;99.90;;;;;;5014830;28;20095;-78
2023/05/27 08:04:57;;;;;;;16.05;5.00;;;15.80;99.90;;;;;;5013682;28;20046;-78
2023/05/27 08:07:22;;;;;;;15.00;4.72;;;15.70;99.90;;;;;;5013277;28;20406;-77
2023/05/27 08:09:48;;;;;;;15.60;4.57;;;15.90;99.90;;;;;;5013328;28;20497;-75
2023/05/27 08:12:13;;;;;;;13.05;4.32;;;15.90;99.90;;;;;;5013218;28;20139;-76
2023/05/27 08:14:40;;;;;;;24.60;4.90;;;16.00;99.90;;;;;;5013468;28;20120;-76
2023/05/27 08:17:06;;;;;;;9.82;3.88;;;16.00;99.90;;;;;;5031364;28;20108;-78
2023/05/27 08:19:31;;;;;;;14.52;4.57;;;16.10;99.90;;;;;;5013075;28;20132;-77
2023/05/27 08:21:57;;;;;;;11.70;4.20;;;16.30;99.90;;;;;;4997193;28;20567;-78
2023/05/27 08:24:23;;;;;;;14.48;4.50;;;16.30;99.90;;;;;;5012972;28;20042;-77
2023/05/27 08:26:49;;;;;;;15.70;4.57;;;16.30;99.90;;;;;;5013130;28;20679;-78
2023/05/27 08:29:16;;;;;;;15.10;5.00;;;16.10;99.90;;;;;;5031099;28;20064;-78
2023/05/27 08:31:41;;;;;;;17.70;4.72;;;15.90;99.90;;;;;;5031096;28;20060;-78
2023/05/27 08:34:07;;;;;;;14.73;4.28;;;15.90;99.90;;;;;;5013195;28;20033;-78
2023/05/27 08:36:32;;;;;;;16.55;4.78;;;16.00;99.90;;;;;;5013396;28;20073;-77
2023/05/27 08:38:59;;;;;;;13.35;4.80;;;16.20;99.90;;;;;;5012994;28;20649;-77
2023/05/27 08:41:27;;;;;;;14.25;4.82;;;16.40;99.90;;;;;;5030556;28;20055;-77
2023/05/27 08:43:53;;;;;;;15.57;5.18;;;16.50;99.90;;;;;;5013095;28;20037;-78
2023/05/27 08:46:19;;;;;;;16.88;5.28;;;16.60;99.90;;;;;;5004753;28;20038;-77
2023/05/27 08:48:46;;;;;;;21.38;4.88;;;16.60;99.90;;;;;;5008477;28;20409;-78
2023/05/27 08:51:13;;;;;;;18.40;5.45;;;16.70;99.90;;;;;;5012238;28;20051;-78
2023/05/27 08:53:39;;;;;;;13.77;4.40;;;16.60;99.90;;;;;;5013467;28;20049;-78
2023/05/27 08:56:06;;;;;;;16.85;5.30;;;16.60;99.90;;;;;;5013224;28;20059;-77
2023/05/27 08:58:32;;;;;;;17.85;5.22;;;16.70;99.90;;;;;;5013049;28;20049;-78
2023/05/27 09:00:58;;;;;;;12.13;4.53;;;16.80;99.90;;;;;;5029653;28;20034;-78
2023/05/27 09:03:24;;;;;;;16.80;4.90;;;16.90;99.90;;;;;;5030632;28;20050;-77
2023/05/27 09:05:49;;;;;;;13.55;4.35;;;17.00;99.90;;;;;;5012743;28;20038;-76
2023/05/27 09:08:15;;;;;;;13.75;5.00;;;17.10;99.90;;;;;;5013015;28;20084;-77
2023/05/27 09:10:42;;;;;;;14.00;4.53;;;17.00;99.90;;;;;;5030450;28;20034;-77
2023/05/27 09:13:08;;;;;;;17.15;4.28;;;17.00;99.90;;;;;;4996690;28;20050;-77
2023/05/27 09:15:34;;;;;;;13.75;4.53;;;16.90;99.90;;;;;;5013705;28;20033;-78
2023/05/27 09:18:02;;;;;;;13.05;4.30;;;17.00;99.90;;;;;;5014352;28;20053;-78
2023/05/27 09:20:29;;;;;;;14.43;3.95;;;17.10;99.90;;;;;;5031991;28;20037;-78
2023/05/27 09:23:03;;;;;;;14.52;4.03;;;17.10;99.90;;;;;;5016969;28;20057;-77
2023/05/27 09:25:29;;;;;;;16.05;4.32;;;17.10;99.90;;;;;;5016700;28;20048;-76
2023/05/27 09:27:56;;;;;;;13.05;4.00;;;17.20;99.90;;;;;;5016696;28;20490;-77
2023/05/27 09:30:22;;;;;;;12.75;4.40;;;17.30;99.90;;;;;;5016091;28;20661;-77
2023/05/27 09:32:49;;;;;;;11.77;4.13;;;17.30;99.90;;;;;;5016567;28;20440;-78
2023/05/27 09:35:16;;;;;;;11.38;4.10;;;17.30;99.90;;;;;;5015931;28;20107;-78
2023/05/27 09:37:45;;;;;;;16.08;4.63;;;17.20;99.90;;;;;;5016357;28;20120;-77
2023/05/27 09:40:12;;;;;;;13.63;3.80;;;17.20;99.90;;;;;;5016217;28;20037;-77
2023/05/27 09:42:48;;;;;;;10.82;4.00;;;17.30;99.90;;;;;;5016418;28;20091;-76
2023/05/27 09:45:20;;;;;;;13.07;4.43;;;17.40;99.90;;;;;;5016626;28;20038;-77
2023/05/27 09:47:51;;;;;;;12.85;4.10;;;17.40;99.90;;;;;;5016288;28;20054;-76
2023/05/27 09:50:18;;;;;;;15.75;4.05;;;17.40;99.90;;;;;;5033487;28;20485;-76
2023/05/27 09:52:46;;;;;;;13.88;4.10;;;17.40;99.90;;;;;;5033653;28;20045;-77
2023/05/27 09:55:12;;;;;;;15.40;4.30;;;17.40;99.90;;;;;;5032617;28;20041;-76
2023/05/27 09:57:39;;;;;;;15.85;4.20;;;17.50;99.90;;;;;;5015563;28;20497;-76
2023/05/27 10:00:15;;;;;;;13.52;4.18;;;17.60;99.90;;;;;;5016300;28;20049;-77
2023/05/27 10:02:42;;;;;;;14.25;3.90;;;17.70;99.90;;;;;;5033831;28;20041;-75
2023/05/27 10:05:11;;;;;;;11.10;4.38;;;17.70;99.90;;;;;;5033991;28;20372;-76
2023/05/27 10:07:40;;;;;;;14.38;4.18;;;17.70;99.90;;;;;;5016048;28;20125;-77
2023/05/27 10:10:11;;;;;;;12.25;3.70;;;17.70;99.90;;;;;;5016091;28;20458;-76
2023/05/27 10:12:38;;;;;;;14.50;4.55;;;17.90;99.90;;;;;;5033362;28;20049;-77
2023/05/27 10:15:04;;;;;;;15.85;4.50;;;18.00;99.90;;;;;;5016090;28;20041;-77
2023/05/27 10:17:54;;;;;;;15.57;4.20;;;18.10;99.90;;;;;;5015568;28;20120;-76
2023/05/27 10:20:31;;;;;;;16.17;4.95;;;18.00;99.90;;;;;;5033609;28;20397;-77
2023/05/27 10:23:15;;;;;;;16.98;4.50;;;18.10;99.90;;;;;;5033628;28;20099;-77
2023/05/27 10:25:46;;;;;;;;;;;18.10;99.90;;;;;;5033990;28;20513;-76
2023/05/27 10:28:22;;;;;;;14.93;4.47;;;18.20;99.90;;;;;;5033365;28;19916;-76
2023/05/27 10:30:48;;;;;;;13.40;4.35;;;18.30;99.90;;;;;;5011976;28;20076;-76
2023/05/27 10:33:13;;;;;;;14.57;4.50;;;18.30;99.90;;;;;;5014412;28;20168;-76
2023/05/27 10:35:41;;;;;;;13.38;4.30;;;18.40;99.90;;;;;;5015617;28;20127;-75
2023/05/27 10:38:17;;;;;;;14.50;4.90;;;18.50;99.90;;;;;;5032791;28;20367;-76
2023/05/27 10:40:45;;;;;;;12.68;4.43;;;18.60;99.90;;;;;;5013450;28;20044;-76
2023/05/27 10:43:17;;;;;;;15.90;4.90;;;18.60;99.90;;;;;;5032046;28;20030;-76
2023/05/27 10:45:44;;;;;;;12.80;4.30;;;18.70;99.90;;;;;;5015196;28;20044;-76
2023/05/27 10:48:20;;;;;;;13.05;4.50;;;18.70;99.90;;;;;;5014827;28;20049;-76
2023/05/27 10:50:53;;;;;;;13.70;4.45;;;18.80;99.90;;;;;;5014943;28;20053;-75
2023/05/27 10:53:21;;;;;;;14.63;4.20;;;18.90;99.90;;;;;;5015214;28;20041;-76
2023/05/27 10:55:51;;;;;;;12.52;4.55;;;19.00;99.90;;;;;;5015349;28;20084;-76
2023/05/27 10:58:17;;;;;;;15.68;5.53;;;18.90;99.90;;;;;;5014700;28;20099;-76
2023/05/27 11:00:46;;;;;;;12.40;4.45;;;19.10;99.90;;;;;;5014950;28;20041;-76
2023/05/27 11:03:23;;;;;;;14.75;5.18;;;19.10;99.90;;;;;;5014630;28;20045;-76
2023/05/27 11:06:03;;;;;;;11.98;4.35;;;18.90;99.90;;;;;;5013637;28;20033;-76
2023/05/27 11:08:30;;;;;;;12.68;4.05;;;19.20;99.90;;;;;;5032047;28;20041;-76
2023/05/27 11:11:05;;;;;;;14.90;4.50;;;19.30;99.90;;;;;;5014333;28;20524;-76
2023/05/27 11:13:42;;;;;;;11.65;4.28;;;19.40;99.90;;;;;;5014832;28;20060;-75
2023/05/27 11:16:08;;;;;;;15.65;4.82;;;19.60;99.90;;;;;;5032523;28;20458;-76
2023/05/27 11:18:47;;;;;;;17.85;5.25;;;19.70;99.90;;;;;;5014422;28;20063;-75
2023/05/27 11:21:18;;;;;;;14.65;4.75;;;19.80;99.90;;;;;;5014617;28;20045;-75
2023/05/27 11:23:46;;;;;;;14.63;4.53;;;20.10;99.90;;;;;;5010394;28;20041;-76
2023/05/27 11:26:17;;;;;;;13.27;4.75;;;19.90;99.90;;;;;;5011344;28;20083;-75
2023/05/27 11:28:47;;;;;;;13.73;4.47;;;20.10;99.90;;;;;;5014113;28;20042;-75
2023/05/27 11:31:14;;;;;;;12.75;4.10;;;20.30;99.90;;;;;;5007378;28;20374;-75
2023/05/27 11:33:44;;;;;;;11.75;4.13;;;20.40;99.90;;;;;;5012646;28;20052;-76
2023/05/27 11:36:14;;;;;;;15.35;4.28;;;20.60;99.90;;;;;;5008510;28;20041;-75
2023/05/27 11:38:50;;;;;;;11.93;4.47;;;20.70;99.90;;;;;;5008712;28;20042;-74
2023/05/27 11:41:17;;;;;;;12.45;4.28;;;20.90;99.90;;;;;;5029397;28;20436;-76
2023/05/27 11:43:59;;;;;;;14.23;4.72;;;20.90;99.90;;;;;;5013263;28;20041;-75
2023/05/27 11:46:37;;;;;;;11.55;4.35;;;21.00;99.90;;;;;;5009268;28;20041;-75
2023/05/27 11:49:08;;;;;;;11.38;4.15;;;21.30;99.90;;;;;;5024728;28;20450;-75
2023/05/27 11:51:38;;;;;;;12.68;4.65;;;21.30;99.90;;;;;;5029109;28;20042;-75
2023/05/27 11:54:04;;;;;;;13.73;5.03;;;21.40;99.90;;;;;;5023236;28;20038;-75
2023/05/27 11:56:30;;;;;;;13.77;4.60;;;21.60;99.90;;;;;;5005625;28;20592;-75
2023/05/27 11:58:56;;;;;;;13.95;4.65;;;21.50;99.90;;;;;;5005034;28;20466;-75
2023/05/27 12:01:22;;;;;;;12.00;4.53;;;21.70;99.90;;;;;;5003720;28;20070;-75
2023/05/27 12:03:48;;;;;;;11.70;4.65;;;21.80;99.90;;;;;;5012922;28;20045;-75
2023/05/27 12:06:14;;;;;;;13.15;4.75;;;22.00;99.90;;;;;;5009667;28;20038;-75
2023/05/27 12:08:41;;;;;;;10.93;4.10;;;22.20;99.90;;;;;;5008123;28;20571;-75
2023/05/27 12:11:07;;;;;;;11.50;4.53;;;22.20;99.90;;;;;;5018702;28;20033;-75
2023/05/27 12:13:33;;;;;;;9.98;4.15;;;22.50;99.90;;;;;;5010586;28;20091;-75
2023/05/27 12:15:59;;;;;;;13.85;4.47;;;22.60;99.90;;;;;;5012696;28;20038;-74
2023/05/27 12:18:24;;;;;;;10.70;4.30;;;22.60;99.90;;;;;;5031121;28;20037;-75
2023/05/27 12:20:50;;;;;;;13.20;4.60;;;22.50;99.90;;;;;;5030753;28;20042;-75
2023/05/27 12:23:16;;;;;;;13.55;4.55;;;22.50;99.90;;;;;;5021628;28;20120;-76
2023/05/27 12:25:42;;;;;;;9.18;3.92;;;22.50;99.90;;;;;;5022327;28;20046;-74
2023/05/27 12:28:08;;;;;;;10.68;4.32;;;22.80;99.90;;;;;;5025063;28;20033;-75
2023/05/27 12:30:35;;;;;;;11.48;4.15;;;23.00;99.90;;;;;;5012519;28;20071;-75
2023/05/27 12:33:02;;;;;;;12.32;4.38;;;23.10;99.90;;;;;;4992592;28;20049;-74
2023/05/27 12:35:27;;;;;;;15.40;4.95;;;23.20;99.90;;;;;;5012336;28;20045;-75
2023/05/27 12:37:53;;;;;;;13.27;4.90;;;23.30;99.90;;;;;;5006742;28;20535;-76
2023/05/27 12:40:19;;;;;;;11.65;4.63;;;23.40;99.90;;;;;;5012377;28;20046;-75
2023/05/27 12:42:44;;;;;;;12.40;4.50;;;23.50;99.90;;;;;;5012957;28;20041;-75
2023/05/27 12:45:10;;;;;;;11.68;4.40;;;23.60;99.90;;;;;;5010751;28;20493;-75
2023/05/27 12:47:36;;;;;;;12.02;4.40;;;23.60;99.90;;;;;;5010719;28;20401;-75